sensor_id;sensor_type;location;lat;lon;timestamp;P1;durP1;ratioP1;P2;durP2;ratioP2
39502;SDS011;26970;49.900;10.774;2023-12-22T00:02:04;6.32;;;2.45;;
39502;SDS011;26970;49.900;10.774;2023-12-22T00:04:29;2.67;;;1.58;;
39502;SDS011;26970;49.900;10.774;2023-12-22T00:06:55;5.22;;;1.38;;
39502;SDS011;26970;49.900;10.774;2023-12-22T00:09:20;6.60;;;1.77;;
39502;SDS011;26970;49.900;10.774;2023-12-22T00:11:46;5.10;;;1.98;;
39502;SDS011;26970;49.900;10.774;2023-12-22T00:14:11;6.60;;;2.28;;
39502;SDS011;26970;49.900;10.774;2023-12-22T00:16:37;3.78;;;1.40;;
39502;SDS011;26970;49.900;10.774;2023-12-22T00:19:03;6.53;;;1.63;;
39502;SDS011;26970;49.900;10.774;2023-12-22T00:21:29;10.00;;;2.10;;
39502;SDS011;26970;49.900;10.774;2023-12-22T00:23:54;5.15;;;1.83;;
39502;SDS011;26970;49.900;10.774;2023-12-22T00:26:20;7.65;;;1.73;;
39502;SDS011;26970;49.900;10.774;2023-12-22T00:28:45;3.80;;;1.50;;
39502;SDS011;26970;49.900;10.774;2023-12-22T00:31:11;11.98;;;2.60;;
39502;SDS011;26970;49.900;10.774;2023-12-22T00:33:40;10.70;;;2.08;;
39502;SDS011;26970;49.900;10.774;2023-12-22T00:36:05;6.43;;;1.77;;
39502;SDS011;26970;49.900;10.774;2023-12-22T00:38:31;5.88;;;1.70;;
39502;SDS011;26970;49.900;10.774;2023-12-22T00:40:57;6.13;;;1.85;;
39502;SDS011;26970;49.900;10.774;2023-12-22T00:43:22;5.20;;;2.10;;
39502;SDS011;26970;49.900;10.774;2023-12-22T00:45:48;6.93;;;1.42;;
39502;SDS011;26970;49.900;10.774;2023-12-22T00:48:13;7.47;;;1.77;;
39502;SDS011;26970;49.900;10.774;2023-12-22T00:50:40;10.13;;;1.92;;
39502;SDS011;26970;49.900;10.774;2023-12-22T00:53:06;11.68;;;1.80;;
39502;SDS011;26970;49.900;10.774;2023-12-22T00:55:32;7.72;;;1.88;;
39502;SDS011;26970;49.900;10.774;2023-12-22T00:57:57;14.43;;;1.92;;
39502;SDS011;26970;49.900;10.774;2023-12-22T01:00:23;6.03;;;1.80;;
39502;SDS011;26970;49.900;10.774;2023-12-22T01:02:48;6.53;;;1.52;;
39502;SDS011;26970;49.900;10.774;2023-12-22T01:05:14;6.70;;;1.95;;
39502;SDS011;26970;49.900;10.774;2023-12-22T01:07:39;7.75;;;1.40;;
39502;SDS011;26970;49.900;10.774;2023-12-22T01:10:05;2.58;;;1.48;;
39502;SDS011;26970;49.900;10.774;2023-12-22T01:12:31;5.05;;;1.30;;
39502;SDS011;26970;49.900;10.774;2023-12-22T01:14:57;4.60;;;1.60;;
39502;SDS011;26970;49.900;10.774;2023-12-22T01:17:22;6.30;;;2.20;;
39502;SDS011;26970;49.900;10.774;2023-12-22T01:19:48;5.00;;;1.70;;
39502;SDS011;26970;49.900;10.774;2023-12-22T01:22:14;7.47;;;2.13;;
39502;SDS011;26970;49.900;10.774;2023-12-22T01:24:39;4.72;;;1.30;;
39502;SDS011;26970;49.900;10.774;2023-12-22T01:27:08;8.57;;;1.60;;
39502;SDS011;26970;49.900;10.774;2023-12-22T01:29:34;7.25;;;2.20;;
39502;SDS011;26970;49.900;10.774;2023-12-22T01:31:59;10.90;;;1.83;;
39502;SDS011;26970;49.900;10.774;2023-12-22T01:34:25;5.53;;;1.85;;
39502;SDS011;26970;49.900;10.774;2023-12-22T01:36:50;4.88;;;1.42;;
39502;SDS011;26970;49.900;10.774;2023-12-22T01:39:16;6.95;;;1.85;;
39502;SDS011;26970;49.900;10.774;2023-12-22T01:41:42;5.97;;;1.80;;
39502;SDS011;26970;49.900;10.774;2023-12-22T01:44:07;3.65;;;1.42;;
39502;SDS011;26970;49.900;10.774;2023-12-22T01:46:33;6.88;;;2.33;;
39502;SDS011;26970;49.900;10.774;2023-12-22T01:49:00;7.57;;;1.60;;
39502;SDS011;26970;49.900;10.774;2023-12-22T01:51:29;4.50;;;1.50;;
39502;SDS011;26970;49.900;10.774;2023-12-22T01:53:56;4.30;;;1.70;;
39502;SDS011;26970;49.900;10.774;2023-12-22T01:56:21;4.97;;;1.45;;
39502;SDS011;26970;49.900;10.774;2023-12-22T01:58:47;3.03;;;2.10;;
39502;SDS011;26970;49.900;10.774;2023-12-22T02:01:15;3.85;;;1.35;;
39502;SDS011;26970;49.900;10.774;2023-12-22T02:03:41;5.47;;;1.42;;
39502;SDS011;26970;49.900;10.774;2023-12-22T02:06:07;14.48;;;1.65;;
39502;SDS011;26970;49.900;10.774;2023-12-22T02:08:33;4.82;;;1.33;;
39502;SDS011;26970;49.900;10.774;2023-12-22T02:10:59;3.20;;;1.35;;
39502;SDS011;26970;49.900;10.774;2023-12-22T02:13:25;4.65;;;1.33;;
39502;SDS011;26970;49.900;10.774;2023-12-22T02:15:54;1.52;;;1.05;;
39502;SDS011;26970;49.900;10.774;2023-12-22T02:18:26;2.80;;;1.63;;
39502;SDS011;26970;49.900;10.774;2023-12-22T02:20:58;4.25;;;1.52;;
39502;SDS011;26970;49.900;10.774;2023-12-22T02:23:23;4.50;;;1.45;;
39502;SDS011;26970;49.900;10.774;2023-12-22T02:25:49;3.28;;;1.52;;
39502;SDS011;26970;49.900;10.774;2023-12-22T02:28:21;3.03;;;1.60;;
39502;SDS011;26970;49.900;10.774;2023-12-22T02:33:37;2.15;;;1.30;;
39502;SDS011;26970;49.900;10.774;2023-12-22T02:36:06;3.95;;;1.30;;
39502;SDS011;26970;49.900;10.774;2023-12-22T02:38:33;3.10;;;1.38;;
39502;SDS011;26970;49.900;10.774;2023-12-22T02:41:00;2.45;;;1.10;;
39502;SDS011;26970;49.900;10.774;2023-12-22T02:43:26;0.80;;;0.80;;
39502;SDS011;26970;49.900;10.774;2023-12-22T02:45:52;2.58;;;1.60;;
39502;SDS011;26970;49.900;10.774;2023-12-22T02:48:18;4.45;;;0.95;;
39502;SDS011;26970;49.900;10.774;2023-12-22T02:50:43;3.28;;;1.17;;
39502;SDS011;26970;49.900;10.774;2023-12-22T02:53:09;1.90;;;1.20;;
39502;SDS011;26970;49.900;10.774;2023-12-22T02:55:34;2.42;;;1.05;;
39502;SDS011;26970;49.900;10.774;2023-12-22T02:58:00;3.63;;;1.40;;
39502;SDS011;26970;49.900;10.774;2023-12-22T03:00:28;1.88;;;1.42;;
39502;SDS011;26970;49.900;10.774;2023-12-22T03:02:53;1.55;;;0.98;;
39502;SDS011;26970;49.900;10.774;2023-12-22T03:05:19;2.45;;;0.98;;
39502;SDS011;26970;49.900;10.774;2023-12-22T03:07:44;5.00;;;1.30;;
39502;SDS011;26970;49.900;10.774;2023-12-22T03:10:10;1.77;;;0.93;;
39502;SDS011;26970;49.900;10.774;2023-12-22T03:12:35;1.73;;;1.17;;
39502;SDS011;26970;49.900;10.774;2023-12-22T03:15:01;1.83;;;1.00;;
39502;SDS011;26970;49.900;10.774;2023-12-22T03:17:27;2.30;;;1.15;;
39502;SDS011;26970;49.900;10.774;2023-12-22T03:19:53;2.00;;;1.55;;
39502;SDS011;26970;49.900;10.774;2023-12-22T03:22:18;1.25;;;1.13;;
39502;SDS011;26970;49.900;10.774;2023-12-22T03:24:44;1.08;;;0.98;;
39502;SDS011;26970;49.900;10.774;2023-12-22T03:27:09;0.80;;;0.80;;
39502;SDS011;26970;49.900;10.774;2023-12-22T03:29:35;0.82;;;0.82;;
39502;SDS011;26970;49.900;10.774;2023-12-22T03:32:00;2.28;;;0.93;;
39502;SDS011;26970;49.900;10.774;2023-12-22T03:34:26;0.75;;;0.75;;
39502;SDS011;26970;49.900;10.774;2023-12-22T03:36:51;1.05;;;1.00;;
39502;SDS011;26970;49.900;10.774;2023-12-22T03:39:17;2.85;;;0.98;;
39502;SDS011;26970;49.900;10.774;2023-12-22T03:41:42;3.45;;;1.52;;
39502;SDS011;26970;49.900;10.774;2023-12-22T03:44:08;5.43;;;1.02;;
39502;SDS011;26970;49.900;10.774;2023-12-22T03:46:34;1.40;;;0.98;;
39502;SDS011;26970;49.900;10.774;2023-12-22T03:48:59;1.75;;;0.95;;
39502;SDS011;26970;49.900;10.774;2023-12-22T03:51:25;1.65;;;1.10;;
39502;SDS011;26970;49.900;10.774;2023-12-22T03:53:50;4.97;;;1.50;;
39502;SDS011;26970;49.900;10.774;2023-12-22T03:56:16;3.22;;;1.30;;
39502;SDS011;26970;49.900;10.774;2023-12-22T03:58:41;4.30;;;2.25;;
39502;SDS011;26970;49.900;10.774;2023-12-22T04:01:07;0.95;;;0.88;;
39502;SDS011;26970;49.900;10.774;2023-12-22T04:03:33;1.27;;;1.10;;
39502;SDS011;26970;49.900;10.774;2023-12-22T04:06:01;5.80;;;1.40;;
39502;SDS011;26970;49.900;10.774;2023-12-22T04:08:27;0.77;;;0.77;;
39502;SDS011;26970;49.900;10.774;2023-12-22T04:10:53;3.25;;;1.20;;
39502;SDS011;26970;49.900;10.774;2023-12-22T04:13:18;2.20;;;1.30;;
39502;SDS011;26970;49.900;10.774;2023-12-22T04:15:44;2.70;;;1.13;;
39502;SDS011;26970;49.900;10.774;2023-12-22T04:18:09;4.18;;;1.27;;
39502;SDS011;26970;49.900;10.774;2023-12-22T04:20:35;2.72;;;1.30;;
39502;SDS011;26970;49.900;10.774;2023-12-22T04:23:00;5.15;;;1.33;;
39502;SDS011;26970;49.900;10.774;2023-12-22T04:25:26;3.03;;;1.17;;
39502;SDS011;26970;49.900;10.774;2023-12-22T04:27:52;3.55;;;1.30;;
39502;SDS011;26970;49.900;10.774;2023-12-22T04:30:17;1.15;;;1.05;;
39502;SDS011;26970;49.900;10.774;2023-12-22T04:32:43;4.78;;;1.35;;
39502;SDS011;26970;49.900;10.774;2023-12-22T04:35:08;2.42;;;1.10;;
39502;SDS011;26970;49.900;10.774;2023-12-22T04:37:34;10.90;;;1.85;;
39502;SDS011;26970;49.900;10.774;2023-12-22T04:39:59;3.50;;;1.08;;
39502;SDS011;26970;49.900;10.774;2023-12-22T04:42:25;6.22;;;1.17;;
39502;SDS011;26970;49.900;10.774;2023-12-22T04:44:51;4.35;;;1.17;;
39502;SDS011;26970;49.900;10.774;2023-12-22T04:47:17;3.00;;;2.15;;
39502;SDS011;26970;49.900;10.774;2023-12-22T04:49:42;2.00;;;0.90;;
39502;SDS011;26970;49.900;10.774;2023-12-22T04:52:08;0.80;;;0.80;;
39502;SDS011;26970;49.900;10.774;2023-12-22T04:54:34;3.40;;;1.02;;
39502;SDS011;26970;49.900;10.774;2023-12-22T04:56:59;5.75;;;1.08;;
39502;SDS011;26970;49.900;10.774;2023-12-22T04:59:25;4.35;;;1.25;;
39502;SDS011;26970;49.900;10.774;2023-12-22T05:01:51;8.00;;;1.10;;
39502;SDS011;26970;49.900;10.774;2023-12-22T05:04:16;1.38;;;1.00;;
39502;SDS011;26970;49.900;10.774;2023-12-22T05:06:42;0.80;;;0.80;;
39502;SDS011;26970;49.900;10.774;2023-12-22T05:09:08;0.73;;;0.73;;
39502;SDS011;26970;49.900;10.774;2023-12-22T05:11:33;2.60;;;0.80;;
39502;SDS011;26970;49.900;10.774;2023-12-22T05:13:59;1.50;;;1.02;;
39502;SDS011;26970;49.900;10.774;2023-12-22T05:16:25;1.17;;;0.68;;
39502;SDS011;26970;49.900;10.774;2023-12-22T05:18:50;2.38;;;0.98;;
39502;SDS011;26970;49.900;10.774;2023-12-22T05:21:16;0.75;;;0.75;;
39502;SDS011;26970;49.900;10.774;2023-12-22T05:23:41;0.80;;;0.80;;
39502;SDS011;26970;49.900;10.774;2023-12-22T05:26:07;1.38;;;0.90;;
39502;SDS011;26970;49.900;10.774;2023-12-22T05:28:33;1.55;;;1.00;;
39502;SDS011;26970;49.900;10.774;2023-12-22T05:30:58;1.75;;;0.93;;
39502;SDS011;26970;49.900;10.774;2023-12-22T05:33:24;2.25;;;1.10;;
39502;SDS011;26970;49.900;10.774;2023-12-22T05:35:49;2.17;;;0.90;;
39502;SDS011;26970;49.900;10.774;2023-12-22T05:38:15;1.20;;;0.90;;
39502;SDS011;26970;49.900;10.774;2023-12-22T05:40:40;1.98;;;0.80;;
39502;SDS011;26970;49.900;10.774;2023-12-22T05:43:06;0.80;;;0.80;;
39502;SDS011;26970;49.900;10.774;2023-12-22T05:45:32;2.13;;;1.33;;
39502;SDS011;26970;49.900;10.774;2023-12-22T05:47:57;5.22;;;1.10;;
39502;SDS011;26970;49.900;10.774;2023-12-22T05:50:23;1.02;;;0.90;;
39502;SDS011;26970;49.900;10.774;2023-12-22T05:52:48;1.48;;;1.10;;
39502;SDS011;26970;49.900;10.774;2023-12-22T05:55:14;2.13;;;1.05;;
39502;SDS011;26970;49.900;10.774;2023-12-22T05:57:39;1.05;;;0.80;;
39502;SDS011;26970;49.900;10.774;2023-12-22T06:00:06;1.20;;;1.10;;
39502;SDS011;26970;49.900;10.774;2023-12-22T06:02:34;0.90;;;0.77;;
39502;SDS011;26970;49.900;10.774;2023-12-22T06:05:00;1.25;;;1.00;;
39502;SDS011;26970;49.900;10.774;2023-12-22T06:07:26;1.50;;;1.10;;
39502;SDS011;26970;49.900;10.774;2023-12-22T06:09:52;1.15;;;1.02;;
39502;SDS011;26970;49.900;10.774;2023-12-22T06:12:17;1.05;;;0.90;;
39502;SDS011;26970;49.900;10.774;2023-12-22T06:14:43;6.72;;;1.10;;
39502;SDS011;26970;49.900;10.774;2023-12-22T06:17:09;1.77;;;0.93;;
39502;SDS011;26970;49.900;10.774;2023-12-22T06:19:37;4.63;;;1.20;;
39502;SDS011;26970;49.900;10.774;2023-12-22T06:22:03;1.75;;;1.00;;
39502;SDS011;26970;49.900;10.774;2023-12-22T06:24:28;1.45;;;1.02;;
39502;SDS011;26970;49.900;10.774;2023-12-22T06:26:54;1.00;;;0.90;;
39502;SDS011;26970;49.900;10.774;2023-12-22T06:29:19;2.83;;;1.02;;
39502;SDS011;26970;49.900;10.774;2023-12-22T06:31:45;2.50;;;1.00;;
39502;SDS011;26970;49.900;10.774;2023-12-22T06:34:15;0.95;;;0.80;;
39502;SDS011;26970;49.900;10.774;2023-12-22T06:36:43;0.70;;;0.70;;
39502;SDS011;26970;49.900;10.774;2023-12-22T06:39:09;0.63;;;0.63;;
39502;SDS011;26970;49.900;10.774;2023-12-22T06:41:34;2.35;;;0.90;;
39502;SDS011;26970;49.900;10.774;2023-12-22T06:44:00;1.08;;;0.98;;
39502;SDS011;26970;49.900;10.774;2023-12-22T06:46:26;0.68;;;0.68;;
39502;SDS011;26970;49.900;10.774;2023-12-22T06:48:52;1.70;;;1.00;;
39502;SDS011;26970;49.900;10.774;2023-12-22T06:53:49;0.80;;;0.80;;
39502;SDS011;26970;49.900;10.774;2023-12-22T06:56:19;3.08;;;1.13;;
39502;SDS011;26970;49.900;10.774;2023-12-22T06:58:46;1.30;;;0.73;;
39502;SDS011;26970;49.900;10.774;2023-12-22T07:01:19;0.80;;;0.80;;
39502;SDS011;26970;49.900;10.774;2023-12-22T07:03:45;2.50;;;1.13;;
39502;SDS011;26970;49.900;10.774;2023-12-22T07:06:12;0.90;;;0.90;;
39502;SDS011;26970;49.900;10.774;2023-12-22T07:08:39;0.68;;;0.68;;
39502;SDS011;26970;49.900;10.774;2023-12-22T07:11:04;2.53;;;1.00;;
39502;SDS011;26970;49.900;10.774;2023-12-22T07:13:30;1.48;;;1.05;;
39502;SDS011;26970;49.900;10.774;2023-12-22T07:15:55;5.03;;;1.20;;
39502;SDS011;26970;49.900;10.774;2023-12-22T07:18:21;1.00;;;0.90;;
39502;SDS011;26970;49.900;10.774;2023-12-22T07:20:46;3.75;;;1.20;;
39502;SDS011;26970;49.900;10.774;2023-12-22T07:23:12;3.40;;;1.50;;
39502;SDS011;26970;49.900;10.774;2023-12-22T07:25:37;2.30;;;1.17;;
39502;SDS011;26970;49.900;10.774;2023-12-22T07:28:03;1.55;;;1.10;;
39502;SDS011;26970;49.900;10.774;2023-12-22T07:30:30;2.65;;;1.33;;
39502;SDS011;26970;49.900;10.774;2023-12-22T07:32:55;4.22;;;1.88;;
39502;SDS011;26970;49.900;10.774;2023-12-22T07:35:20;2.85;;;1.55;;
39502;SDS011;26970;49.900;10.774;2023-12-22T07:37:46;1.17;;;1.08;;
39502;SDS011;26970;49.900;10.774;2023-12-22T07:40:12;4.82;;;2.33;;
39502;SDS011;26970;49.900;10.774;2023-12-22T07:42:37;1.55;;;1.13;;
39502;SDS011;26970;49.900;10.774;2023-12-22T07:45:03;2.42;;;1.60;;
39502;SDS011;26970;49.900;10.774;2023-12-22T07:47:30;4.97;;;1.75;;
39502;SDS011;26970;49.900;10.774;2023-12-22T07:49:56;3.70;;;2.13;;
39502;SDS011;26970;49.900;10.774;2023-12-22T07:52:21;6.15;;;1.50;;
39502;SDS011;26970;49.900;10.774;2023-12-22T07:54:47;4.95;;;1.55;;
39502;SDS011;26970;49.900;10.774;2023-12-22T07:57:12;4.63;;;2.42;;
39502;SDS011;26970;49.900;10.774;2023-12-22T07:59:38;1.98;;;1.20;;
39502;SDS011;26970;49.900;10.774;2023-12-22T08:02:04;3.50;;;1.55;;
39502;SDS011;26970;49.900;10.774;2023-12-22T08:04:29;2.60;;;1.60;;
39502;SDS011;26970;49.900;10.774;2023-12-22T08:06:55;3.38;;;1.50;;
39502;SDS011;26970;49.900;10.774;2023-12-22T08:09:20;5.03;;;1.75;;
39502;SDS011;26970;49.900;10.774;2023-12-22T08:11:47;2.92;;;1.63;;
39502;SDS011;26970;49.900;10.774;2023-12-22T08:14:17;5.22;;;1.42;;
39502;SDS011;26970;49.900;10.774;2023-12-22T08:16:43;7.55;;;1.55;;
39502;SDS011;26970;49.900;10.774;2023-12-22T08:19:09;4.90;;;1.65;;
39502;SDS011;26970;49.900;10.774;2023-12-22T08:21:35;1.45;;;1.20;;
39502;SDS011;26970;49.900;10.774;2023-12-22T08:24:01;2.35;;;1.20;;
39502;SDS011;26970;49.900;10.774;2023-12-22T08:26:26;3.42;;;1.20;;
39502;SDS011;26970;49.900;10.774;2023-12-22T08:28:52;3.28;;;1.20;;
39502;SDS011;26970;49.900;10.774;2023-12-22T08:31:17;3.25;;;1.60;;
39502;SDS011;26970;49.900;10.774;2023-12-22T08:33:43;5.05;;;1.30;;
39502;SDS011;26970;49.900;10.774;2023-12-22T08:36:10;3.58;;;1.40;;
39502;SDS011;26970;49.900;10.774;2023-12-22T08:38:36;4.25;;;1.50;;
39502;SDS011;26970;49.900;10.774;2023-12-22T08:41:05;4.20;;;1.33;;
39502;SDS011;26970;49.900;10.774;2023-12-22T08:43:32;3.60;;;1.30;;
39502;SDS011;26970;49.900;10.774;2023-12-22T08:45:58;5.03;;;1.38;;
39502;SDS011;26970;49.900;10.774;2023-12-22T08:48:23;4.20;;;1.10;;
39502;SDS011;26970;49.900;10.774;2023-12-22T08:50:49;1.10;;;1.00;;
39502;SDS011;26970;49.900;10.774;2023-12-22T08:53:15;5.28;;;1.30;;
39502;SDS011;26970;49.900;10.774;2023-12-22T08:55:40;3.50;;;1.40;;
39502;SDS011;26970;49.900;10.774;2023-12-22T08:58:06;3.15;;;1.10;;
39502;SDS011;26970;49.900;10.774;2023-12-22T09:00:31;1.17;;;0.90;;
39502;SDS011;26970;49.900;10.774;2023-12-22T09:02:57;1.40;;;1.20;;
39502;SDS011;26970;49.900;10.774;2023-12-22T09:05:22;4.10;;;1.30;;
39502;SDS011;26970;49.900;10.774;2023-12-22T09:07:48;1.88;;;1.27;;
39502;SDS011;26970;49.900;10.774;2023-12-22T09:10:14;1.50;;;1.38;;
39502;SDS011;26970;49.900;10.774;2023-12-22T09:12:39;1.33;;;0.98;;
39502;SDS011;26970;49.900;10.774;2023-12-22T09:15:05;1.60;;;1.20;;
39502;SDS011;26970;49.900;10.774;2023-12-22T09:17:30;1.65;;;0.80;;
39502;SDS011;26970;49.900;10.774;2023-12-22T09:19:57;3.00;;;0.98;;
39502;SDS011;26970;49.900;10.774;2023-12-22T09:22:23;1.92;;;1.00;;
39502;SDS011;26970;49.900;10.774;2023-12-22T09:24:48;1.13;;;0.95;;
39502;SDS011;26970;49.900;10.774;2023-12-22T09:27:14;3.65;;;1.10;;
39502;SDS011;26970;49.900;10.774;2023-12-22T09:29:39;4.65;;;1.20;;
39502;SDS011;26970;49.900;10.774;2023-12-22T09:32:05;5.47;;;1.23;;
39502;SDS011;26970;49.900;10.774;2023-12-22T09:34:31;5.90;;;1.27;;
39502;SDS011;26970;49.900;10.774;2023-12-22T09:36:57;1.13;;;0.80;;
39502;SDS011;26970;49.900;10.774;2023-12-22T09:39:23;3.00;;;1.63;;
39502;SDS011;26970;49.900;10.774;2023-12-22T09:41:49;4.68;;;2.05;;
39502;SDS011;26970;49.900;10.774;2023-12-22T09:44:19;6.32;;;2.47;;
39502;SDS011;26970;49.900;10.774;2023-12-22T09:46:46;3.53;;;2.03;;
39502;SDS011;26970;49.900;10.774;2023-12-22T09:49:15;3.08;;;1.88;;
39502;SDS011;26970;49.900;10.774;2023-12-22T09:51:45;6.70;;;2.85;;
39502;SDS011;26970;49.900;10.774;2023-12-22T09:54:11;9.32;;;3.15;;
39502;SDS011;26970;49.900;10.774;2023-12-22T09:56:38;9.75;;;3.30;;
39502;SDS011;26970;49.900;10.774;2023-12-22T09:59:09;11.40;;;7.05;;
39502;SDS011;26970;49.900;10.774;2023-12-22T10:01:37;9.13;;;4.22;;
39502;SDS011;26970;49.900;10.774;2023-12-22T10:04:05;10.90;;;5.20;;
39502;SDS011;26970;49.900;10.774;2023-12-22T10:06:30;11.57;;;2.90;;
39502;SDS011;26970;49.900;10.774;2023-12-22T10:08:56;9.32;;;4.75;;
39502;SDS011;26970;49.900;10.774;2023-12-22T10:11:22;15.23;;;4.22;;
39502;SDS011;26970;49.900;10.774;2023-12-22T10:13:48;13.32;;;6.15;;
39502;SDS011;26970;49.900;10.774;2023-12-22T10:16:17;14.98;;;7.45;;
39502;SDS011;26970;49.900;10.774;2023-12-22T10:18:43;7.38;;;3.33;;
39502;SDS011;26970;49.900;10.774;2023-12-22T10:21:09;7.22;;;2.95;;
39502;SDS011;26970;49.900;10.774;2023-12-22T10:23:35;5.05;;;1.67;;
39502;SDS011;26970;49.900;10.774;2023-12-22T10:26:00;5.53;;;2.28;;
39502;SDS011;26970;49.900;10.774;2023-12-22T10:28:29;12.90;;;3.92;;
39502;SDS011;26970;49.900;10.774;2023-12-22T10:30:54;4.53;;;2.70;;
39502;SDS011;26970;49.900;10.774;2023-12-22T10:33:24;6.28;;;2.75;;
39502;SDS011;26970;49.900;10.774;2023-12-22T10:35:49;8.57;;;2.58;;
39502;SDS011;26970;49.900;10.774;2023-12-22T10:38:18;5.43;;;2.30;;
39502;SDS011;26970;49.900;10.774;2023-12-22T10:40:45;4.90;;;1.73;;
39502;SDS011;26970;49.900;10.774;2023-12-22T10:43:11;8.48;;;2.60;;
39502;SDS011;26970;49.900;10.774;2023-12-22T10:45:36;6.18;;;2.42;;
39502;SDS011;26970;49.900;10.774;2023-12-22T10:48:02;3.38;;;1.80;;
39502;SDS011;26970;49.900;10.774;2023-12-22T10:50:28;4.07;;;1.80;;
39502;SDS011;26970;49.900;10.774;2023-12-22T10:52:54;5.82;;;1.92;;
39502;SDS011;26970;49.900;10.774;2023-12-22T10:55:20;4.78;;;1.45;;
39502;SDS011;26970;49.900;10.774;2023-12-22T10:57:46;3.45;;;1.83;;
39502;SDS011;26970;49.900;10.774;2023-12-22T11:00:12;5.10;;;1.67;;
39502;SDS011;26970;49.900;10.774;2023-12-22T11:02:42;4.63;;;1.55;;
39502;SDS011;26970;49.900;10.774;2023-12-22T11:05:09;5.40;;;1.83;;
39502;SDS011;26970;49.900;10.774;2023-12-22T11:07:37;6.53;;;2.30;;
39502;SDS011;26970;49.900;10.774;2023-12-22T11:10:04;5.60;;;2.15;;
39502;SDS011;26970;49.900;10.774;2023-12-22T11:12:33;6.82;;;1.92;;
39502;SDS011;26970;49.900;10.774;2023-12-22T11:15:01;2.17;;;1.77;;
39502;SDS011;26970;49.900;10.774;2023-12-22T11:17:30;2.35;;;1.58;;
39502;SDS011;26970;49.900;10.774;2023-12-22T11:19:57;5.93;;;2.30;;
39502;SDS011;26970;49.900;10.774;2023-12-22T11:22:24;3.20;;;2.00;;
39502;SDS011;26970;49.900;10.774;2023-12-22T11:24:51;2.33;;;1.75;;
39502;SDS011;26970;49.900;10.774;2023-12-22T11:27:20;5.22;;;1.98;;
39502;SDS011;26970;49.900;10.774;2023-12-22T11:29:50;7.40;;;1.77;;
39502;SDS011;26970;49.900;10.774;2023-12-22T11:32:16;2.45;;;1.35;;
39502;SDS011;26970;49.900;10.774;2023-12-22T11:34:43;4.40;;;1.35;;
39502;SDS011;26970;49.900;10.774;2023-12-22T11:37:10;8.52;;;2.22;;
39502;SDS011;26970;49.900;10.774;2023-12-22T11:39:37;5.40;;;1.45;;
39502;SDS011;26970;49.900;10.774;2023-12-22T11:42:04;1.42;;;1.08;;
39502;SDS011;26970;49.900;10.774;2023-12-22T11:44:31;5.20;;;1.15;;
39502;SDS011;26970;49.900;10.774;2023-12-22T11:47:04;7.50;;;1.50;;
39502;SDS011;26970;49.900;10.774;2023-12-22T11:49:37;2.60;;;1.45;;
39502;SDS011;26970;49.900;10.774;2023-12-22T11:52:12;8.30;;;1.70;;
39502;SDS011;26970;49.900;10.774;2023-12-22T11:54:51;2.05;;;1.20;;
39502;SDS011;26970;49.900;10.774;2023-12-22T11:59:58;3.63;;;1.58;;
39502;SDS011;26970;49.900;10.774;2023-12-22T12:02:33;4.80;;;1.48;;
39502;SDS011;26970;49.900;10.774;2023-12-22T12:05:00;10.02;;;1.85;;
39502;SDS011;26970;49.900;10.774;2023-12-22T12:07:40;5.47;;;1.38;;
39502;SDS011;26970;49.900;10.774;2023-12-22T12:10:10;4.85;;;1.63;;
39502;SDS011;26970;49.900;10.774;2023-12-22T12:12:37;5.57;;;1.65;;
39502;SDS011;26970;49.900;10.774;2023-12-22T12:15:07;4.10;;;1.40;;
39502;SDS011;26970;49.900;10.774;2023-12-22T12:17:37;12.30;;;2.25;;
39502;SDS011;26970;49.900;10.774;2023-12-22T12:20:05;8.15;;;1.83;;
39502;SDS011;26970;49.900;10.774;2023-12-22T12:22:32;10.07;;;2.00;;
39502;SDS011;26970;49.900;10.774;2023-12-22T12:24:59;9.85;;;3.65;;
39502;SDS011;26970;49.900;10.774;2023-12-22T12:27:26;4.60;;;2.45;;
39502;SDS011;26970;49.900;10.774;2023-12-22T12:29:52;11.27;;;2.20;;
39502;SDS011;26970;49.900;10.774;2023-12-22T12:32:18;6.68;;;2.10;;
39502;SDS011;26970;49.900;10.774;2023-12-22T12:34:47;7.47;;;2.28;;
39502;SDS011;26970;49.900;10.774;2023-12-22T12:37:15;7.47;;;2.92;;
39502;SDS011;26970;49.900;10.774;2023-12-22T12:39:41;5.82;;;2.28;;
39502;SDS011;26970;49.900;10.774;2023-12-22T12:42:08;5.95;;;2.30;;
39502;SDS011;26970;49.900;10.774;2023-12-22T12:44:40;10.57;;;3.38;;
39502;SDS011;26970;49.900;10.774;2023-12-22T12:47:11;6.10;;;2.67;;
39502;SDS011;26970;49.900;10.774;2023-12-22T12:49:37;6.20;;;2.22;;
39502;SDS011;26970;49.900;10.774;2023-12-22T12:52:02;11.73;;;2.42;;
39502;SDS011;26970;49.900;10.774;2023-12-22T12:54:28;8.57;;;2.60;;
39502;SDS011;26970;49.900;10.774;2023-12-22T12:56:54;7.32;;;2.60;;
39502;SDS011;26970;49.900;10.774;2023-12-22T12:59:19;8.02;;;3.15;;
39502;SDS011;26970;49.900;10.774;2023-12-22T13:01:46;7.60;;;3.30;;
39502;SDS011;26970;49.900;10.774;2023-12-22T13:04:12;7.68;;;2.78;;
39502;SDS011;26970;49.900;10.774;2023-12-22T13:06:43;4.68;;;2.47;;
39502;SDS011;26970;49.900;10.774;2023-12-22T13:09:12;6.60;;;2.17;;
39502;SDS011;26970;49.900;10.774;2023-12-22T13:11:38;4.78;;;2.08;;
39502;SDS011;26970;49.900;10.774;2023-12-22T13:14:07;9.27;;;3.13;;
39502;SDS011;26970;49.900;10.774;2023-12-22T13:16:33;10.30;;;2.58;;
39502;SDS011;26970;49.900;10.774;2023-12-22T13:18:59;11.48;;;2.55;;
39502;SDS011;26970;49.900;10.774;2023-12-22T13:21:25;11.25;;;3.20;;
39502;SDS011;26970;49.900;10.774;2023-12-22T13:24:14;9.23;;;2.90;;
39502;SDS011;26970;49.900;10.774;2023-12-22T13:26:41;5.93;;;1.88;;
39502;SDS011;26970;49.900;10.774;2023-12-22T13:29:07;7.00;;;1.92;;
39502;SDS011;26970;49.900;10.774;2023-12-22T13:31:36;2.38;;;1.08;;
39502;SDS011;26970;49.900;10.774;2023-12-22T13:34:03;9.13;;;2.92;;
39502;SDS011;26970;49.900;10.774;2023-12-22T13:36:36;12.18;;;1.77;;
39502;SDS011;26970;49.900;10.774;2023-12-22T13:39:01;4.38;;;1.88;;
39502;SDS011;26970;49.900;10.774;2023-12-22T13:41:32;7.25;;;1.90;;
39502;SDS011;26970;49.900;10.774;2023-12-22T13:44:10;6.50;;;1.90;;
39502;SDS011;26970;49.900;10.774;2023-12-22T13:46:36;8.98;;;1.92;;
39502;SDS011;26970;49.900;10.774;2023-12-22T13:49:05;6.97;;;2.20;;
39502;SDS011;26970;49.900;10.774;2023-12-22T13:51:42;7.57;;;1.90;;
39502;SDS011;26970;49.900;10.774;2023-12-22T13:54:09;2.25;;;1.20;;
39502;SDS011;26970;49.900;10.774;2023-12-22T13:56:35;6.00;;;2.05;;
39502;SDS011;26970;49.900;10.774;2023-12-22T13:59:07;5.63;;;1.73;;
39502;SDS011;26970;49.900;10.774;2023-12-22T14:01:33;11.45;;;2.15;;
39502;SDS011;26970;49.900;10.774;2023-12-22T14:03:59;5.57;;;2.00;;
39502;SDS011;26970;49.900;10.774;2023-12-22T14:06:28;6.88;;;1.92;;
39502;SDS011;26970;49.900;10.774;2023-12-22T14:08:54;4.28;;;1.40;;
39502;SDS011;26970;49.900;10.774;2023-12-22T14:11:20;9.18;;;1.58;;
39502;SDS011;26970;49.900;10.774;2023-12-22T14:13:46;2.70;;;1.13;;
39502;SDS011;26970;49.900;10.774;2023-12-22T14:16:12;8.55;;;1.80;;
39502;SDS011;26970;49.900;10.774;2023-12-22T14:18:38;2.78;;;1.80;;
39502;SDS011;26970;49.900;10.774;2023-12-22T14:21:04;3.92;;;1.55;;
39502;SDS011;26970;49.900;10.774;2023-12-22T14:23:30;3.35;;;1.38;;
39502;SDS011;26970;49.900;10.774;2023-12-22T14:25:56;2.10;;;1.25;;
39502;SDS011;26970;49.900;10.774;2023-12-22T14:28:21;2.35;;;1.40;;
39502;SDS011;26970;49.900;10.774;2023-12-22T14:30:47;3.22;;;1.60;;
39502;SDS011;26970;49.900;10.774;2023-12-22T14:33:12;3.72;;;1.38;;
39502;SDS011;26970;49.900;10.774;2023-12-22T14:35:39;3.85;;;2.10;;
39502;SDS011;26970;49.900;10.774;2023-12-22T14:38:04;5.13;;;2.20;;